Dutch Harbor, AK

12:37 AM AKDT on August 02, 2014 (GMT -0800)
Dutch Harbor (PADU) Elev 13 ft | 53.90 °N, 166.54 °W | Change Station

Current weather conditions updated 41 minutes ago

Light Rain
Light Rain
55 °F
Feels Like 55 °F
N
0
Wind Variable Wind from North

Today is forecast to be nearly the same temperature as yesterday. Showers ending by midday.

Today
High -- | Low -- °F
--% Chance of Precip.
Yesterday
High -- | Low -- °F
Precip. -- in
7:22 AM 11:01 PM
Waxing Crescent, 33% visible
Pressure 30.24 in
Visibility 10.0 miles
Clouds Scattered Clouds 2700 ft
Overcast 6500 ft
Dew Point 51 °F
Humidity 86%
Rainfall 0.01 in
Snow Depth Not available.
UV 0 out of 12
Pollen Not available.
Air Quality Not available.
Flu Activity Not available.
METAR PADU 020756Z AUTO 00000KT 10SM -RA SCT027 OVC065 13/11 A3022 RMK AO2 RAB29 SLP238 P0000 T01280106

More Conditions Fewer Conditions

Pressure 30.24 in
Visibility 10.0 miles
Clouds Scattered Clouds 2700 ft
Overcast 6500 ft
Dew Point 51 °F
Humidity 86%
Rainfall 0.01 in
Snow Depth Not available.
UV 0 out of 12
Pollen Not available.
Air Quality Not available.
Flu Activity Not available.
METAR PADU 020756Z AUTO 00000KT 10SM -RA SCT027 OVC065 13/11 A3022 RMK AO2 RAB29 SLP238 P0000 T01280106

More Conditions Fewer Conditions

10-Day Weather Forecast

Almanac

Astronomy

Aug. 02, 2014 Rise Set
Actual Time 7:22 AM AKDT 11:01 PM AKDT
Civil Twilight 6:38 AM AKDT 11:45 PM AKDT
Nautical Twilight 5:36 AM AKDT 12:45 AM AKDT
Astronomical Twilight 3:47 AM AKDT 2:27 AM AKDT
Moon 3:03 PM AKDT 12:53 AM AKDT
Length of Visible Light 17h 06m
Length of Day
15h 39m
Tomorrow will be 3m 35s shorter.
Waxing Crescent, 33% of the Moon is Illuminated
Today
Waxing Crescent
Aug 3
First Quarter
Aug 10
Full
Aug 17
Last Quarter
Aug 25
New

Today's Extremes

State Highs State Lows

Community

WunderPhotos

Upload Photos

1,739,844 photos uploaded!

Nearby

Snow Depth

Station Depth Elevation
Port Graham 0 in 300 ft
Mcneil Canyon 1 in 1320 ft
MF Bradley River 240 in 2300 ft
Nuka Glacier 95 in 1250 ft
Rocky Point 1 in 500 ft

Earthquake Activity

City Distance Mag. Time & Date
No recent earthquake activity has been reported nearby.
Minimum magnitude displayed is 2.5.

Coastal Water Temperatures

Place Temperature
No Stations Reporting

Nearby Weather Stations

There are no personal weather stations in this area.